Time;durP1;ratioP1;P1;durP2;ratioP2;P2;SDS_P1;SDS_P2;PMS_P1;PMS_P2;Temp;Humidity;BMP_temperature;BMP_pressure;BME280_temperature;BME280_humidity;BME280_pressure;Samples;Min_cycle;Max_cycle;Signal;HPM_P1;HPM_P2
2023/07/03 00:00:38;;;;;;;6.60;4.30;;;;;;;23.62;58.32;99661.35;105555;1251;60482;-66
2023/07/03 00:03:05;;;;;;;5.90;4.30;;;;;;;23.57;58.47;99661.23;105438;1258;60396;-64
2023/07/03 00:05:34;;;;;;;5.90;4.10;;;;;;;23.53;58.52;99664.29;105874;1251;66122;-64
2023/07/03 00:08:02;;;;;;;7.20;4.20;;;;;;;23.54;58.68;99663.66;105690;1253;61351;-61
2023/07/03 00:10:29;;;;;;;8.20;4.30;;;;;;;23.55;58.56;99665.59;105206;1254;63708;-63
2023/07/03 00:12:57;;;;;;;8.40;4.70;;;;;;;23.56;58.88;99658.56;105531;1251;60394;-63
2023/07/03 00:15:24;;;;;;;8.40;4.60;;;;;;;23.55;58.80;99652.20;105509;1251;60341;-61
2023/07/03 00:17:52;;;;;;;9.90;4.60;;;;;;;23.53;58.92;99649.80;105540;1256;64737;-62
2023/07/03 00:20:19;;;;;;;6.30;4.50;;;;;;;23.50;59.09;99655.58;105310;1251;61353;-62
2023/07/03 00:22:48;;;;;;;6.60;4.20;;;;;;;23.47;59.12;99652.26;105536;1254;63721;-65
2023/07/03 00:25:15;;;;;;;5.90;4.00;;;;;;;23.46;59.11;99651.08;105667;1251;60508;-64
2023/07/03 00:27:43;;;;;;;8.20;4.00;;;;;;;23.45;59.16;99652.95;105853;1251;60473;-62
2023/07/03 00:30:11;;;;;;;6.90;4.00;;;;;;;23.46;59.30;99657.60;105550;1257;64945;-62
2023/07/03 00:32:39;;;;;;;7.70;4.50;;;;;;;23.46;59.32;99658.84;105348;1251;61356;-61
2023/07/03 00:35:07;;;;;;;6.40;4.40;;;;;;;23.47;59.45;99657.02;105614;1254;62424;-61
2023/07/03 00:37:34;;;;;;;7.20;4.60;;;;;;;23.46;59.41;99659.42;105952;1256;60472;-62
2023/07/03 00:40:03;;;;;;;6.50;4.00;;;;;;;23.44;59.46;99661.07;105575;1257;60441;-61
2023/07/03 00:42:31;;;;;;;5.80;3.80;;;;;;;23.38;59.49;99661.84;105808;1257;64838;-62
2023/07/03 00:44:59;;;;;;;7.40;3.60;;;;;;;23.33;59.74;99659.49;105570;1251;61355;-63
2023/07/03 00:47:27;;;;;;;7.70;3.90;;;;;;;23.30;59.88;99662.79;105483;1251;62624;-59
2023/07/03 00:49:55;;;;;;;6.00;4.00;;;;;;;23.30;59.92;99668.29;105496;1257;60556;-58
2023/07/03 00:52:22;;;;;;;7.00;4.30;;;;;;;23.29;60.02;99665.54;105367;1251;60556;-58
2023/07/03 00:54:54;;;;;;;7.20;4.10;;;;;;;23.28;60.02;99667.39;105668;1251;63684;-58
2023/07/03 00:57:23;;;;;;;7.20;4.50;;;;;;;23.26;60.03;99672.20;105465;1258;69919;-57
2023/07/03 00:59:50;;;;;;;5.80;3.80;;;;;;;23.23;60.17;99676.04;105623;1251;64962;-57
2023/07/03 01:02:22;;;;;;;8.10;4.60;;;;;;;23.18;60.19;99680.08;105423;1259;60558;-59
2023/07/03 01:04:59;;;;;;;8.20;4.30;;;;;;;23.13;60.25;99678.33;105895;1252;60640;-58
2023/07/03 01:07:29;;;;;;;6.70;3.90;;;;;;;23.10;60.32;99680.51;105774;1254;64909;-57
2023/07/03 01:10:04;;;;;;;7.50;4.10;;;;;;;23.10;60.30;99684.14;105527;1254;60557;-57
2023/07/03 01:12:34;;;;;;;7.60;4.40;;;;;;;23.09;60.50;99682.30;105910;1253;63812;-56
2023/07/03 01:15:04;;;;;;;6.10;4.00;;;;;;;23.08;60.65;99681.77;105521;1251;60540;-56
2023/07/03 01:17:31;;;;;;;7.20;4.50;;;;;;;23.06;60.90;99685.23;105472;1250;60578;-58
2023/07/03 01:19:59;;;;;;;7.20;4.80;;;;;;;23.04;60.97;99690.58;105393;1251;64895;-56
2023/07/03 01:22:44;;;;;;;7.30;5.00;;;;;;;23.00;61.23;99690.15;105418;1258;61361;-56
2023/07/03 01:25:14;;;;;;;6.70;4.90;;;;;;;22.96;61.22;99692.42;105666;1254;64630;-56
2023/07/03 01:27:42;;;;;;;6.30;4.20;;;;;;;22.95;61.25;99695.98;105450;1258;60514;-57
2023/07/03 01:30:13;;;;;;;8.20;4.60;;;;;;;22.96;61.40;99698.70;105869;1257;61030;-58
2023/07/03 01:32:41;;;;;;;9.10;4.80;;;;;;;22.98;61.57;99702.85;105514;1251;63875;-61
2023/07/03 01:35:08;;;;;;;6.60;4.80;;;;;;;23.00;61.76;99709.88;105798;1258;60297;-61
2023/07/03 01:37:39;;;;;;;7.00;4.90;;;;;;;23.00;61.70;99711.13;105384;1254;63697;-59
2023/07/03 01:40:08;;;;;;;6.10;4.50;;;;;;;22.98;61.68;99711.39;105696;1251;60552;-60
2023/07/03 01:42:38;;;;;;;6.50;4.50;;;;;;;22.95;61.61;99714.18;105390;1252;60476;-61
2023/07/03 01:45:06;;;;;;;7.50;5.00;;;;;;;22.94;61.62;99715.31;105659;1254;63689;-59
2023/07/03 01:47:36;;;;;;;6.60;4.80;;;;;;;22.94;61.64;99714.94;106135;1251;61413;-58
2023/07/03 01:50:06;;;;;;;8.00;4.20;;;;;;;22.95;61.51;99718.35;105355;1257;63895;-59
2023/07/03 01:52:38;;;;;;;7.10;4.90;;;;;;;22.96;61.69;99718.22;105655;1256;60558;-60
2023/07/03 01:55:17;;;;;;;8.20;4.70;;;;;;;22.96;61.84;99714.79;105481;1261;60420;-60
2023/07/03 01:57:49;;;;;;;6.70;5.10;;;;;;;22.94;61.91;99714.48;105981;1257;65346;-60
2023/07/03 02:00:21;;;;;;;8.10;5.60;;;;;;;22.92;62.08;99714.41;105812;1254;61442;-61
2023/07/03 02:02:49;;;;;;;7.70;4.90;;;;;;;22.89;62.17;99714.89;105334;1254;64682;-60
2023/07/03 02:05:20;;;;;;;8.10;4.50;;;;;;;22.89;62.25;99714.79;105654;1254;60552;-59
2023/07/03 02:07:49;;;;;;;8.10;4.20;;;;;;;22.91;62.23;99710.39;105485;1256;60301;-60
2023/07/03 02:10:17;;;;;;;6.50;4.60;;;;;;;22.90;62.45;99708.40;105647;1252;63693;-59
2023/07/03 02:12:46;;;;;;;7.00;5.00;;;;;;;22.90;62.59;99710.26;105663;1251;61340;-59
2023/07/03 02:15:16;;;;;;;8.70;5.50;;;;;;;22.89;62.73;99715.59;105559;1254;62558;-61
2023/07/03 02:17:45;;;;;;;9.90;5.70;;;;;;;22.87;62.65;99717.88;105367;1254;60572;-59
2023/07/03 02:20:14;;;;;;;9.00;5.10;;;;;;;22.86;62.87;99722.55;105996;1253;60536;-59
2023/07/03 02:22:42;;;;;;;8.30;5.10;;;;;;;22.88;62.64;99729.59;105404;1259;64860;-60
2023/07/03 02:25:10;;;;;;;6.00;4.20;;;;;;;22.87;62.75;99733.45;105613;1251;61934;-59
2023/07/03 02:27:38;;;;;;;7.20;5.20;;;;;;;22.84;62.94;99732.93;105470;1254;63753;-59
2023/07/03 02:30:06;;;;;;;7.60;5.50;;;;;;;22.80;63.26;99733.30;106069;1259;60552;-59
2023/07/03 02:32:39;;;;;;;8.80;5.60;;;;;;;22.74;63.21;99734.87;105725;1258;60494;-58
2023/07/03 02:35:07;;;;;;;7.50;6.00;;;;;;;22.66;63.24;99735.95;105813;1252;64903;-61
2023/07/03 02:37:35;;;;;;;9.40;5.60;;;;;;;22.61;63.28;99733.16;105643;1251;61398;-60
2023/07/03 02:40:05;;;;;;;7.10;5.10;;;;;;;22.59;63.30;99734.48;106138;1254;63678;-60
2023/07/03 02:42:33;;;;;;;8.40;5.00;;;;;;;22.57;63.22;99737.52;105759;1254;60611;-60
2023/07/03 02:45:00;;;;;;;7.70;5.90;;;;;;;22.51;63.28;99740.12;105426;1251;60428;-60
2023/07/03 02:47:35;;;;;;;10.70;6.30;;;;;;;22.42;63.25;99743.66;105710;1251;63711;-61
2023/07/03 02:50:04;;;;;;;8.10;6.00;;;;;;;22.30;63.42;99748.23;105541;1257;61416;-59
2023/07/03 02:52:32;;;;;;;8.40;6.20;;;;;;;22.19;63.62;99747.30;105606;1257;63710;-60
2023/07/03 02:55:00;;;;;;;7.70;6.10;;;;;;;22.09;63.82;99749.74;105428;1251;60473;-58
2023/07/03 02:57:28;;;;;;;8.00;6.20;;;;;;;22.06;63.95;99749.13;105601;1260;60458;-58
2023/07/03 02:59:56;;;;;;;8.60;6.50;;;;;;;22.09;63.96;99750.23;105574;1251;64924;-59
2023/07/03 03:02:26;;;;;;;9.50;7.10;;;;;;;22.14;63.97;99753.09;105801;1251;61356;-59
2023/07/03 03:04:53;;;;;;;9.20;6.80;;;;;;;22.20;63.89;99753.92;105542;1252;62518;-57
2023/07/03 03:07:21;;;;;;;8.10;6.70;;;;;;;22.26;63.88;99755.50;105455;1259;61049;-55
2023/07/03 03:09:48;;;;;;;10.90;8.20;;;;;;;22.38;63.88;99756.23;105559;1251;60535;-57
2023/07/03 03:12:17;;;;;;;11.10;8.80;;;;;;;22.48;63.65;99758.29;105776;1251;64851;-57
2023/07/03 03:14:44;;;;;;;9.80;8.20;;;;;;;22.59;63.41;99760.45;105703;1251;61394;-57
2023/07/03 03:17:12;;;;;;;10.50;8.20;;;;;;;22.70;63.12;99764.52;105445;1259;63664;-61
2023/07/03 03:19:39;;;;;;;10.10;8.50;;;;;;;22.77;62.73;99768.02;105476;1257;60527;-59
2023/07/03 03:22:07;;;;;;;12.50;8.70;;;;;;;22.78;62.85;99774.01;105524;1256;60347;-58
2023/07/03 03:24:34;;;;;;;13.30;9.00;;;;;;;22.78;62.67;99772.97;108348;1257;64900;-57
2023/07/03 03:27:06;;;;;;;11.80;8.70;;;;;;;22.79;62.65;99776.55;105745;1256;60530;-58
2023/07/03 03:29:40;;;;;;;13.40;9.00;;;;;;;22.82;62.52;99779.33;105504;1254;64241;-58
2023/07/03 03:32:08;;;;;;;9.80;8.70;;;;;;;22.87;62.38;99782.23;105734;1252;60541;-60
2023/07/03 03:34:36;;;;;;;11.40;9.50;;;;;;;22.89;62.34;99784.31;105665;1256;60450;-59
2023/07/03 03:37:05;;;;;;;12.10;9.80;;;;;;;22.93;62.38;99783.95;105862;1257;64942;-59
2023/07/03 03:39:32;;;;;;;11.50;9.30;;;;;;;22.95;62.31;99787.20;105529;1251;61433;-60
2023/07/03 03:42:02;;;;;;;14.40;9.50;;;;;;;22.94;62.36;99795.34;105659;1258;63767;-60
2023/07/03 03:44:30;;;;;;;11.00;9.50;;;;;;;22.94;62.35;99797.90;105670;1254;60636;-60
2023/07/03 03:46:57;;;;;;;11.10;9.80;;;;;;;22.94;62.42;99797.27;105484;1253;60440;-60
2023/07/03 03:49:26;;;;;;;10.20;8.90;;;;;;;22.97;62.43;99801.38;105717;1251;64908;-60
2023/07/03 03:52:14;;;;;;;10.60;9.50;;;;;;;23.05;62.27;99799.06;105366;1251;61328;-60
2023/07/03 03:55:04;;;;;;;11.60;10.40;;;;;;;23.18;61.99;99797.69;104990;1260;64049;-58
2023/07/03 03:57:32;;;;;;;11.80;9.80;;;;;;;23.28;61.77;99797.23;104882;1260;60764;-59
2023/07/03 04:00:00;;;;;;;11.90;10.50;;;;;;;23.34;61.39;99795.56;105547;1254;60300;-59
2023/07/03 04:02:38;;;;;;;12.60;10.10;;;;;;;23.39;61.14;99803.48;105335;1260;63620;-61
2023/07/03 04:05:25;;;;;;;13.40;10.00;;;;;;;23.41;61.10;99808.62;105271;1254;60859;-59
2023/07/03 04:07:52;;;;;;;12.40;10.40;;;;;;;23.42;60.97;99813.82;105205;1267;63795;-59
2023/07/03 04:10:20;;;;;;;12.80;10.30;;;;;;;23.42;60.98;99819.02;105502;1254;60533;-59
2023/07/03 04:12:48;;;;;;;12.20;9.60;;;;;;;23.43;61.18;99818.15;105546;1257;60414;-60
2023/07/03 04:15:30;;;;;;;13.60;10.70;;;;;;;23.47;61.08;99817.65;105533;1252;63604;-59
2023/07/03 04:17:58;;;;;;;16.50;10.50;;;;;;;23.53;60.87;99813.16;105696;1258;61360;-58
2023/07/03 04:20:26;;;;;;;13.60;11.20;;;;;;;23.58;60.61;99808.04;105674;1257;63712;-60
2023/07/03 04:22:54;;;;;;;12.50;11.10;;;;;;;23.62;60.64;99810.89;105649;1254;60514;-59
2023/07/03 04:25:21;;;;;;;12.70;11.00;;;;;;;23.68;60.57;99824.60;105658;1257;60353;-59
2023/07/03 04:27:49;;;;;;;12.70;9.80;;;;;;;23.74;60.40;99831.77;105472;1257;64900;-60
2023/07/03 04:30:16;;;;;;;12.20;10.90;;;;;;;23.79;60.27;99831.02;105718;1256;61363;-52
2023/07/03 04:32:48;;;;;;;17.80;11.30;;;;;;;23.86;60.09;99828.01;105551;1254;63724;-54
2023/07/03 04:35:16;;;;;;;14.20;12.00;;;;;;;23.92;59.94;99838.73;105573;1259;60556;-53
2023/07/03 04:37:45;;;;;;;14.50;11.30;;;;;;;24.00;59.66;99848.95;105556;1255;60609;-55
2023/07/03 04:40:13;;;;;;;12.40;11.10;;;;;;;24.05;59.43;99855.49;105600;1259;64986;-55
2023/07/03 04:42:40;;;;;;;11.90;10.30;;;;;;;24.06;59.31;99857.39;105615;1257;60478;-54
2023/07/03 04:45:08;;;;;;;12.00;10.10;;;;;;;24.09;59.33;99859.69;106417;1254;62446;-54
2023/07/03 04:47:39;;;;;;;12.80;11.00;;;;;;;24.14;58.85;99860.48;105664;1254;60870;-54
2023/07/03 04:50:11;;;;;;;12.50;11.10;;;;;;;24.17;58.53;99859.91;105636;1254;60097;-54
2023/07/03 04:52:39;;;;;;;10.80;9.70;;;;;;;24.20;58.34;99865.58;105613;1257;64855;-54
2023/07/03 04:55:08;;;;;;;13.20;10.30;;;;;;;24.22;57.79;99864.89;105883;1254;61402;-61
2023/07/03 04:57:38;;;;;;;11.00;9.80;;;;;;;24.22;57.10;99867.91;105386;1257;62496;-58
2023/07/03 05:00:18;;;;;;;11.30;10.00;;;;;;;24.21;56.42;99872.77;105813;1258;60441;-60
2023/07/03 05:02:47;;;;;;;12.70;10.10;;;;;;;24.19;56.30;99873.29;105760;1257;60370;-63
2023/07/03 05:05:15;;;;;;;14.30;10.00;;;;;;;24.18;55.92;99874.67;105587;1255;64961;-63
2023/07/03 05:08:08;;;;;;;14.30;10.00;;;;;;;24.16;55.70;99880.42;98247;1254;10265442;-63
2023/07/03 05:23:26;;;;;;;10.30;8.80;;;;;;;24.17;55.61;99895.23;103303;1283;605121;-57
2023/07/03 05:25:54;;;;;;;11.40;9.30;;;;;;;24.56;54.50;99900.04;104528;1263;100492;-58
2023/07/03 05:28:22;;;;;;;11.70;9.80;;;;;;;24.59;54.32;99905.10;104740;1263;59271;-58
2023/07/03 05:30:57;;;;;;;12.00;9.90;;;;;;;24.58;54.17;99908.21;104615;1263;62181;-56
2023/07/03 05:33:25;;;;;;;11.00;9.50;;;;;;;24.56;54.50;99911.76;105018;1266;61410;-61
2023/07/03 05:35:52;;;;;;;14.30;9.90;;;;;;;24.54;54.40;99912.71;104647;1270;63771;-56
2023/07/03 05:38:21;;;;;;;10.80;9.60;;;;;;;24.53;54.58;99915.65;105596;1254;59349;-71
2023/07/03 05:40:50;;;;;;;12.50;9.50;;;;;;;24.49;54.66;99913.79;105540;1252;59310;-59
2023/07/03 05:43:18;;;;;;;11.40;9.80;;;;;;;24.46;54.22;99917.18;105146;1252;63287;-61
2023/07/03 05:45:47;;;;;;;12.60;10.00;;;;;;;24.43;54.18;99919.48;105608;1253;61536;-61
2023/07/03 05:48:15;;;;;;;11.70;9.90;;;;;;;24.42;54.42;99924.13;105456;1253;63866;-60
2023/07/03 05:50:43;;;;;;;13.50;10.30;;;;;;;24.42;54.57;99930.64;105385;1253;59763;-65
2023/07/03 05:53:11;;;;;;;12.70;10.50;;;;;;;24.41;54.65;99935.04;105440;1253;59656;-68
2023/07/03 05:55:39;;;;;;;11.70;10.00;;;;;;;24.40;54.74;99936.48;105561;1253;62849;-68
2023/07/03 05:58:06;;;;;;;12.90;10.50;;;;;;;24.38;54.55;99944.30;105583;1254;63244;-59
2023/07/03 06:00:34;;;;;;;14.20;11.40;;;;;;;24.37;54.56;99944.73;105509;1256;63752;-62
2023/07/03 06:03:02;;;;;;;12.50;10.30;;;;;;;24.34;54.64;99954.01;105214;1255;60555;-56
2023/07/03 06:05:30;;;;;;;17.00;9.50;;;;;;;24.39;54.95;99956.41;105770;1258;59564;-56
2023/07/03 06:07:57;;;;;;;12.90;9.80;;;;;;;24.46;54.58;99952.14;105060;1252;64167;-58
2023/07/03 06:10:25;;;;;;;13.20;10.00;;;;;;;24.49;54.12;99950.07;105251;1253;61360;-56
2023/07/03 06:12:52;;;;;;;12.40;10.10;;;;;;;24.50;53.86;99950.86;105413;1256;63797;-56
2023/07/03 06:15:20;;;;;;;11.10;9.50;;;;;;;24.51;53.90;99951.54;106395;1258;59698;-56
2023/07/03 06:18:14;;;;;;;10.90;9.40;;;;;;;24.52;53.61;99953.45;105124;1259;59646;-62
2023/07/03 06:20:41;;;;;;;12.50;10.00;;;;;;;24.51;53.44;99954.61;105541;1253;64118;-59
2023/07/03 06:23:09;;;;;;;13.10;10.50;;;;;;;24.53;53.72;99960.64;105322;1253;61361;-62
2023/07/03 06:25:36;;;;;;;11.20;9.70;;;;;;;24.57;53.81;99954.33;105203;1254;64800;-59
2023/07/03 06:28:04;;;;;;;15.20;10.00;;;;;;;24.62;53.41;99951.69;105317;1253;59635;-66
2023/07/03 06:30:31;;;;;;;18.40;10.40;;;;;;;24.67;53.25;99953.74;105136;1253;59750;-61
2023/07/03 06:33:14;;;;;;;12.70;9.60;;;;;;;24.74;53.48;99953.77;105463;1254;62857;-61
2023/07/03 06:35:42;;;;;;;11.30;9.70;;;;;;;24.83;52.91;99950.21;105415;1254;61367;-62
2023/07/03 06:38:10;;;;;;;12.80;9.80;;;;;;;24.89;52.70;99948.73;105148;1259;62684;-64
2023/07/03 06:40:38;;;;;;;13.00;9.60;;;;;;;24.94;52.89;99952.64;105198;1254;59649;-62
2023/07/03 06:43:05;;;;;;;12.20;9.30;;;;;;;25.00;52.54;99964.54;105336;1258;60144;-61
2023/07/03 06:45:36;;;;;;;11.90;9.70;;;;;;;25.06;52.53;99971.86;105391;1259;64141;-62
2023/07/03 06:48:04;;;;;;;11.60;10.40;;;;;;;25.13;52.54;99973.00;105266;1257;61476;-62
2023/07/03 06:50:31;;;;;;;13.20;9.30;;;;;;;25.20;52.39;99974.18;105266;1256;64306;-61
2023/07/03 06:52:59;;;;;;;11.90;9.80;;;;;;;25.26;52.06;99981.93;105457;1259;59737;-62
2023/07/03 06:55:27;;;;;;;12.80;10.40;;;;;;;25.33;52.06;99989.19;105432;1253;59654;-59
2023/07/03 06:57:55;;;;;;;13.30;9.90;;;;;;;25.38;51.74;99991.27;105893;1253;62917;-59
2023/07/03 07:00:23;;;;;;;11.60;9.30;;;;;;;25.43;51.73;99992.29;105635;1253;61287;-65
2023/07/03 07:02:50;;;;;;;11.90;9.40;;;;;;;25.48;51.39;99992.11;105278;1255;64255;-66
2023/07/03 07:05:19;;;;;;;11.90;9.70;;;;;;;25.52;50.85;99989.52;105343;1254;59722;-65
2023/07/03 07:07:47;;;;;;;10.80;9.60;;;;;;;25.53;50.79;99994.98;105740;1256;59694;-61
2023/07/03 07:10:14;;;;;;;13.40;10.60;;;;;;;25.56;50.63;99993.98;105376;1257;64119;-62
2023/07/03 07:12:42;;;;;;;12.10;10.20;;;;;;;25.60;50.59;99993.05;105468;1253;61502;-64
2023/07/03 07:15:10;;;;;;;12.60;10.00;;;;;;;25.66;50.58;99996.69;105374;1257;62510;-62
2023/07/03 07:21:23;;;;;;;13.00;8.70;;;;;;;25.84;50.38;99996.85;105634;1258;59724;-58
2023/07/03 07:23:56;;;;;;;12.40;9.40;;;;;;;25.96;49.63;99998.13;105388;1253;63118;-57
2023/07/03 07:26:33;;;;;;;10.30;9.20;;;;;;;26.04;48.98;100001.94;105410;1261;61547;-58
2023/07/03 07:29:01;;;;;;;11.30;9.30;;;;;;;26.11;49.44;100002.42;105313;1259;62415;-58
2023/07/03 07:31:29;;;;;;;11.30;9.00;;;;;;;26.21;49.14;100002.42;105204;1261;59627;-59
2023/07/03 07:33:56;;;;;;;10.20;8.20;;;;;;;26.28;48.71;100006.52;107006;1253;59556;-61
2023/07/03 07:36:25;;;;;;;11.90;9.00;;;;;;;26.34;48.66;100003.63;105359;1253;65026;-59
2023/07/03 07:38:52;;;;;;;12.00;8.40;;;;;;;26.39;48.87;100007.55;105618;1253;61318;-60
2023/07/03 07:41:24;;;;;;;11.00;8.80;;;;;;;26.44;48.52;100008.91;105472;1256;63850;-61
2023/07/03 07:43:53;;;;;;;11.90;8.10;;;;;;;26.48;48.31;100010.84;105562;1259;59743;-64
2023/07/03 07:46:25;;;;;;;10.30;8.30;;;;;;;26.52;47.74;100012.91;105393;1256;59684;-58
2023/07/03 07:48:52;;;;;;;8.30;6.60;;;;;;;26.57;47.87;100013.33;105732;1253;62910;-62
2023/07/03 07:51:20;;;;;;;9.70;7.10;;;;;;;26.65;47.39;100015.96;105550;1253;61371;-59
2023/07/03 07:53:48;;;;;;;11.80;7.20;;;;;;;26.75;46.93;100020.21;105621;1259;63741;-59
2023/07/03 07:56:16;;;;;;;10.60;8.20;;;;;;;26.83;46.81;100021.20;105854;1254;59681;-59
2023/07/03 07:58:43;;;;;;;11.00;7.70;;;;;;;26.94;46.49;100018.58;105482;1259;59597;-60
2023/07/03 08:01:12;;;;;;;12.90;8.60;;;;;;;27.05;46.20;100020.43;105574;1259;64133;-60
2023/07/03 08:03:40;;;;;;;15.60;8.30;;;;;;;27.14;46.10;100019.48;106684;1258;70304;-61
2023/07/03 08:06:08;;;;;;;14.10;7.80;;;;;;;27.20;46.16;100024.62;106302;1259;64201;-58
2023/07/03 08:08:36;;;;;;;9.50;7.70;;;;;;;27.28;46.28;100026.42;106026;1252;59565;-59
2023/07/03 08:11:05;;;;;;;9.60;7.60;;;;;;;27.33;45.93;100027.41;105234;1259;60300;-60
2023/07/03 08:13:33;;;;;;;11.00;8.00;;;;;;;27.36;45.57;100025.80;105360;1253;73076;-59
2023/07/03 08:16:01;;;;;;;12.80;8.00;;;;;;;27.41;45.46;100026.80;105474;1259;61292;-61
2023/07/03 08:18:29;;;;;;;9.50;8.50;;;;;;;27.46;45.22;100027.70;105494;1256;63702;-59
2023/07/03 08:20:56;;;;;;;9.30;7.50;;;;;;;27.49;44.88;100028.67;105494;1259;59731;-58
2023/07/03 08:23:24;;;;;;;12.30;7.60;;;;;;;27.51;44.72;100028.66;109110;1253;59139;-61
2023/07/03 08:25:52;;;;;;;10.00;7.60;;;;;;;27.52;44.77;100029.71;109104;1253;64191;-60
2023/07/03 08:28:21;;;;;;;9.80;7.00;;;;;;;27.53;44.77;100029.23;108857;1258;61420;-59
2023/07/03 08:30:48;;;;;;;11.60;7.80;;;;;;;27.56;44.74;100035.44;106746;1253;63839;-59
2023/07/03 08:33:15;;;;;;;8.90;7.10;;;;;;;27.61;45.01;100035.85;105542;1259;59745;-59
2023/07/03 08:35:43;;;;;;;9.60;8.00;;;;;;;27.67;45.14;100035.68;105258;1259;59382;-59
2023/07/03 08:38:14;;;;;;;8.90;7.60;;;;;;;27.73;45.01;100037.61;105507;1259;64055;-59
2023/07/03 08:40:42;;;;;;;11.30;7.80;;;;;;;27.78;44.27;100036.84;105751;1253;61445;-59
2023/07/03 08:43:14;;;;;;;15.70;9.20;;;;;;;27.80;44.06;100041.36;105710;1257;62499;-59
2023/07/03 08:45:43;;;;;;;21.50;11.80;;;;;;;27.83;44.28;100042.55;105456;1252;60604;-58
2023/07/03 08:48:13;;;;;;;19.40;12.50;;;;;;;27.81;43.84;100040.67;105987;1253;59647;-59
2023/07/03 08:50:46;;;;;;;11.10;7.30;;;;;;;27.76;44.32;100045.55;106027;1260;63235;-60
2023/07/03 08:53:17;;;;;;;12.70;7.70;;;;;;;27.75;44.19;100046.84;105360;1257;61485;-64
2023/07/03 08:56:11;;;;;;;11.40;8.10;;;;;;;27.73;43.95;100050.47;105434;1254;63780;-66
2023/07/03 08:58:39;;;;;;;11.20;8.60;;;;;;;27.71;44.61;100053.31;105456;1257;59763;-62
2023/07/03 09:01:25;;;;;;;12.60;7.80;;;;;;;27.69;44.57;100050.63;105373;1253;59660;-62
2023/07/03 09:04:05;;;;;;;12.10;8.20;;;;;;;27.69;44.83;100050.14;105342;1260;64150;-64
2023/07/03 09:06:51;;;;;;;9.80;7.80;;;;;;;27.71;45.05;100053.05;105494;1259;61340;-63
2023/07/03 09:09:19;;;;;;;10.90;7.60;;;;;;;27.73;44.84;100051.59;105300;1257;64658;-62
2023/07/03 09:11:53;;;;;;;10.50;7.50;;;;;;;27.73;44.49;100047.56;108661;1253;59060;-68
2023/07/03 09:14:23;;;;;;;9.90;7.80;;;;;;;27.71;44.48;100048.51;107493;1257;60658;-59
2023/07/03 09:16:51;;;;;;;33.80;19.20;;;;;;;27.69;44.34;100055.88;106372;1259;64159;-60
2023/07/03 09:19:20;;;;;;;11.10;7.80;;;;;;;27.68;44.22;100057.04;106438;1254;61300;-61
2023/07/03 09:21:50;;;;;;;15.60;9.30;;;;;;;27.67;44.43;100053.69;105486;1260;62637;-61
2023/07/03 09:24:25;;;;;;;11.40;7.10;;;;;;;27.70;44.35;100054.00;105445;1259;59766;-67
2023/07/03 09:27:13;;;;;;;11.30;6.80;;;;;;;27.74;44.28;100055.80;105276;1255;59724;-64
2023/07/03 09:29:41;;;;;;;9.40;7.30;;;;;;;27.84;44.26;100055.32;105307;1252;62840;-64
2023/07/03 09:32:21;;;;;;;23.30;12.10;;;;;;;27.93;43.61;100056.56;109108;1253;61320;-61
2023/07/03 09:35:20;;;;;;;10.30;7.90;;;;;;;28.00;43.86;100059.16;109246;1254;62465;-60
2023/07/03 09:37:50;;;;;;;31.00;17.40;;;;;;;28.09;44.24;100060.82;109136;1253;58194;-60
2023/07/03 09:40:23;;;;;;;10.20;6.60;;;;;;;28.18;43.76;100062.42;106713;1255;60523;-59
2023/07/03 09:42:51;;;;;;;9.20;6.30;;;;;;;28.26;43.26;100066.38;105465;1257;63855;-62
2023/07/03 09:45:23;;;;;;;24.60;16.10;;;;;;;28.32;42.86;100065.88;105421;1259;61353;-55
2023/07/03 09:47:57;;;;;;;8.10;6.50;;;;;;;28.37;42.92;100071.04;105415;1256;63820;-55
2023/07/03 09:50:27;;;;;;;;;;;;;;;28.44;42.73;100069.52;106186;1254;60454;-55
2023/07/03 09:52:55;;;;;;;9.30;6.40;;;;;;;28.54;42.30;100069.82;105393;1259;60468;-56
2023/07/03 09:55:34;;;;;;;11.30;7.00;;;;;;;28.63;42.11;100072.95;105554;1259;64915;-55
2023/07/03 09:58:10;;;;;;;40.10;21.00;;;;;;;28.75;42.41;100070.61;105482;1258;61381;-54
2023/07/03 10:00:43;;;;;;;20.00;14.30;;;;;;;28.84;42.54;100064.33;105572;1257;62660;-57
2023/07/03 10:03:23;;;;;;;9.60;5.80;;;;;;;28.94;42.59;100062.60;105390;1253;60549;-56
2023/07/03 10:05:57;;;;;;;12.30;5.60;;;;;;;29.04;41.16;100061.32;105475;1253;60428;-53
2023/07/03 10:08:27;;;;;;;10.10;6.10;;;;;;;29.13;40.60;100061.10;105523;1259;65521;-55
2023/07/03 10:10:58;;;;;;;8.80;6.40;;;;;;;29.19;41.19;100062.23;105611;1260;61386;-56
2023/07/03 10:13:30;;;;;;;9.30;6.30;;;;;;;29.22;41.32;100062.97;105538;1254;62470;-56
2023/07/03 10:15:58;;;;;;;11.10;6.30;;;;;;;29.24;40.97;100065.25;105453;1255;60616;-56
2023/07/03 10:18:27;;;;;;;8.20;6.50;;;;;;;29.27;40.84;100068.16;105415;1257;60425;-56
2023/07/03 10:20:54;;;;;;;18.80;10.20;;;;;;;29.33;40.83;100069.85;105384;1259;64926;-56
2023/07/03 10:23:24;;;;;;;9.50;6.60;;;;;;;29.38;40.24;100069.14;105523;1254;60562;-56
2023/07/03 10:26:10;;;;;;;9.00;6.60;;;;;;;29.39;40.20;100071.01;105635;1257;63911;-56
2023/07/03 10:28:41;;;;;;;11.00;6.30;;;;;;;29.41;39.37;100072.97;105532;1259;60543;-57
2023/07/03 10:31:11;;;;;;;10.00;6.10;;;;;;;29.41;39.82;100075.77;105564;1260;60358;-56
2023/07/03 10:33:44;;;;;;;8.10;6.20;;;;;;;29.45;39.83;100076.52;105502;1259;64981;-56
2023/07/03 10:36:16;;;;;;;7.40;5.70;;;;;;;29.56;40.09;100073.70;105534;1260;60445;-58
2023/07/03 10:38:52;;;;;;;8.50;5.90;;;;;;;29.67;38.49;100074.52;105356;1260;63695;-56
2023/07/03 10:41:44;;;;;;;9.10;5.30;;;;;;;29.62;37.96;100073.65;105331;1256;60458;-56
2023/07/03 10:44:24;;;;;;;8.70;5.80;;;;;;;29.50;38.35;100079.73;105794;1258;60302;-53
2023/07/03 10:47:14;;;;;;;8.60;5.40;;;;;;;29.43;38.37;100083.89;105749;1260;65005;-55
2023/07/03 10:49:44;;;;;;;7.40;5.40;;;;;;;29.35;38.21;100085.05;105413;1258;60474;-54
2023/07/03 10:52:18;;;;;;;7.70;5.60;;;;;;;29.25;38.33;100084.23;105463;1259;64250;-54
2023/07/03 10:54:53;;;;;;;8.70;5.90;;;;;;;29.18;39.39;100078.73;105573;1259;60540;-54
2023/07/03 10:57:27;;;;;;;8.10;5.70;;;;;;;29.22;38.97;100081.39;105495;1254;60937;-55
2023/07/03 10:59:56;;;;;;;7.70;6.00;;;;;;;29.29;38.96;100078.91;105323;1259;63638;-54
2023/07/03 11:03:09;;;;;;;11.10;6.20;;;;;;;29.35;39.03;100079.52;105648;1254;60202;-55
2023/07/03 11:05:44;;;;;;;7.60;6.10;;;;;;;29.42;38.98;100076.77;105178;1267;63791;-56
2023/07/03 11:08:40;;;;;;;9.10;5.80;;;;;;;29.42;38.60;100078.67;105311;1259;60578;-57
2023/07/03 11:11:40;;;;;;;7.70;5.90;;;;;;;29.41;39.07;100075.41;105553;1254;60674;-56
2023/07/03 11:14:23;;;;;;;10.00;5.80;;;;;;;29.48;38.83;100072.44;105622;1253;64878;-56
2023/07/03 11:17:15;;;;;;;6.90;5.20;;;;;;;29.56;38.93;100065.14;105373;1261;60599;-55
2023/07/03 11:20:02;;;;;;;7.10;5.00;;;;;;;29.59;38.71;100068.27;105979;1259;63824;-55
2023/07/03 11:22:52;;;;;;;10.60;6.10;;;;;;;29.65;38.33;100064.79;105542;1254;61005;-53
2023/07/03 11:25:31;;;;;;;9.30;4.80;;;;;;;29.74;38.08;100061.58;105548;1258;60416;-53
2023/07/03 11:28:07;;;;;;;7.20;4.70;;;;;;;29.85;37.51;100060.42;105761;1255;63704;-53
2023/07/03 11:30:35;;;;;;;5.70;3.20;;;;;;;29.96;36.60;100063.08;105332;1259;61358;-52
2023/07/03 11:33:05;;;;;;;5.50;3.20;;;;;;;29.97;35.59;100058.20;106144;1254;62668;-54
2023/07/03 11:35:32;;;;;;;6.50;4.10;;;;;;;29.97;35.37;100057.07;106015;1254;60563;-55
2023/07/03 11:38:05;;;;;;;6.30;3.60;;;;;;;29.99;35.51;100060.02;105471;1254;62307;-55
2023/07/03 11:40:59;;;;;;;5.50;3.60;;;;;;;29.99;35.22;100056.15;106113;1254;64899;-55
2023/07/03 11:43:42;;;;;;;6.30;4.10;;;;;;;29.97;35.24;100051.58;105178;1260;61483;-56
2023/07/03 11:46:23;;;;;;;6.70;4.60;;;;;;;29.98;35.39;100046.93;105592;1260;65883;-54
2023/07/03 11:48:55;;;;;;;8.10;4.10;;;;;;;30.05;35.25;100046.27;105762;1263;60438;-55
2023/07/03 11:51:32;;;;;;;5.30;3.20;;;;;;;30.11;35.06;100048.11;105438;1254;60556;-58